createdAt,value
2019-02-04T00:00:20.119Z,95.60
2019-02-04T00:01:20.078Z,88.40
2019-02-04T00:02:20.071Z,96.70
2019-02-04T00:03:20.064Z,88.60
2019-02-04T00:04:20.058Z,89.00
2019-02-04T00:05:20.067Z,85.90
2019-02-04T00:06:20.026Z,95.10
2019-02-04T00:07:20.022Z,76.60
2019-02-04T00:08:20.009Z,80.10
2019-02-04T00:09:19.999Z,77.40
2019-02-04T00:10:20.013Z,90.30
2019-02-04T00:11:19.983Z,87.50
2019-02-04T00:12:19.968Z,97.10
2019-02-04T00:13:19.954Z,89.80
2019-02-04T00:14:19.949Z,91.30
2019-02-04T00:15:19.958Z,80.30
2019-02-04T00:16:19.934Z,86.80
2019-02-04T00:17:19.917Z,80.60
2019-02-04T00:18:19.903Z,87.90
2019-02-04T00:19:19.897Z,80.20
2019-02-04T00:20:19.909Z,77.10
2019-02-04T00:21:19.882Z,86.30
2019-02-04T00:22:19.861Z,87.30
2019-02-04T00:23:19.852Z,88.10
2019-02-04T00:24:19.839Z,92.40
2019-02-04T00:25:21.570Z,101.70
2019-02-04T00:26:19.819Z,97.10
2019-02-04T00:27:19.807Z,89.90
2019-02-04T00:28:19.797Z,88.90
2019-02-04T00:29:19.794Z,88.80
2019-02-04T00:30:19.804Z,85.80
2019-02-04T00:31:19.801Z,80.90
2019-02-04T00:32:19.756Z,81.30
2019-02-04T00:33:19.753Z,88.50
2019-02-04T00:34:19.732Z,86.10
2019-02-04T00:35:19.755Z,83.40
2019-02-04T00:36:19.717Z,89.00
2019-02-04T00:37:19.700Z,90.30
2019-02-04T00:38:19.692Z,84.70
2019-02-04T00:39:19.679Z,82.10
2019-02-04T00:40:19.689Z,85.50
2019-02-04T00:41:19.652Z,94.50
2019-02-04T00:42:19.643Z,83.00
2019-02-04T00:43:19.631Z,82.90
2019-02-04T00:44:19.622Z,83.90
2019-02-04T00:45:19.635Z,83.00
2019-02-04T00:46:19.610Z,82.20
2019-02-04T00:47:19.590Z,85.70
2019-02-04T00:48:19.576Z,88.50
2019-02-04T00:49:19.567Z,85.90
2019-02-04T00:50:19.587Z,94.40
2019-02-04T00:51:19.555Z,84.20
2019-02-04T00:52:19.535Z,84.10
2019-02-04T00:53:19.526Z,80.40
2019-02-04T00:54:19.562Z,80.00
2019-02-04T00:55:19.656Z,94.00
2019-02-04T00:56:19.494Z,83.10
2019-02-04T00:57:19.483Z,87.20
2019-02-04T00:58:19.466Z,94.70
2019-02-04T00:59:19.462Z,102.80
2019-02-04T01:00:19.449Z,89.70
2019-02-04T01:01:19.459Z,89.30
2019-02-04T01:02:19.431Z,88.60
2019-02-04T01:03:19.419Z,90.30
2019-02-04T01:04:19.408Z,92.30
2019-02-04T01:05:19.397Z,89.50
2019-02-04T01:06:19.415Z,106.80
2019-02-04T01:07:19.372Z,106.50
2019-02-04T01:08:19.364Z,95.60
2019-02-04T01:09:19.353Z,103.10
2019-02-04T01:10:19.344Z,96.40
2019-02-04T01:11:19.356Z,96.10
2019-02-04T01:12:19.316Z,98.00
2019-02-04T01:13:19.312Z,96.40
2019-02-04T01:14:19.303Z,112.60
2019-02-04T01:15:19.284Z,97.90
2019-02-04T01:16:19.311Z,98.50
2019-02-04T01:17:19.271Z,108.80
2019-02-04T01:18:19.252Z,106.50
2019-02-04T01:19:19.245Z,99.30
2019-02-04T01:20:19.248Z,105.40
2019-02-04T01:21:19.255Z,111.20
2019-02-04T01:22:19.206Z,108.00
2019-02-04T01:23:19.198Z,105.90
2019-02-04T01:24:19.187Z,108.60
2019-02-04T01:25:19.182Z,106.30
2019-02-04T01:26:19.190Z,106.00
2019-02-04T01:27:19.154Z,108.70
2019-02-04T01:28:19.148Z,109.20
2019-02-04T01:29:19.136Z,128.20
2019-02-04T01:30:19.123Z,109.70
2019-02-04T01:31:19.138Z,108.00
2019-02-04T01:32:19.103Z,117.20
2019-02-04T01:33:19.091Z,108.40
2019-02-04T01:34:19.082Z,96.60
2019-02-04T01:35:19.073Z,110.90
2019-02-04T01:36:19.098Z,106.00
2019-02-04T01:37:19.057Z,103.30
2019-02-04T01:38:19.044Z,108.70
2019-02-04T01:39:19.047Z,100.00
2019-02-04T01:40:19.028Z,112.40
2019-02-04T01:41:19.044Z,124.40
2019-02-04T01:42:19.000Z,112.60
2019-02-04T01:43:18.996Z,100.00
2019-02-04T01:44:18.975Z,128.70
2019-02-04T01:45:18.964Z,123.00
2019-02-04T01:46:19.081Z,115.50
2019-02-04T01:47:18.949Z,121.50
2019-02-04T01:48:18.936Z,104.30
2019-02-04T01:49:18.938Z,123.50
2019-02-04T01:50:18.917Z,120.70
2019-02-04T01:51:18.928Z,114.90
2019-02-04T01:52:18.904Z,135.90
2019-02-04T01:53:18.882Z,119.00
2019-02-04T01:54:18.877Z,105.00
2019-02-04T01:55:18.873Z,114.30
2019-02-04T01:56:18.881Z,116.00
2019-02-04T01:57:18.842Z,129.50
2019-02-04T01:58:18.828Z,102.90
2019-02-04T01:59:18.819Z,111.90
2019-02-04T02:00:18.815Z,115.40
2019-02-04T02:01:18.826Z,120.40
2019-02-04T02:02:18.786Z,122.60
2019-02-04T02:03:18.775Z,115.10
2019-02-04T02:04:18.765Z,126.40
2019-02-04T02:05:18.769Z,128.80
2019-02-04T02:06:18.775Z,118.30
2019-02-04T02:07:18.754Z,136.80
2019-02-04T02:08:18.726Z,116.70
2019-02-04T02:09:18.716Z,122.80
2019-02-04T02:10:18.704Z,124.90
2019-02-04T02:11:18.718Z,117.80
2019-02-04T02:12:18.683Z,132.60
2019-02-04T02:13:18.667Z,144.90
2019-02-04T02:14:18.665Z,118.80
2019-02-04T02:15:18.651Z,123.50
2019-02-04T02:16:18.786Z,119.40
2019-02-04T02:17:25.859Z,126.70
2019-02-04T02:18:19.614Z,121.70
2019-02-04T02:19:18.610Z,124.20
2019-02-04T02:20:18.596Z,130.20
2019-02-04T02:21:18.595Z,115.70
2019-02-04T02:22:18.604Z,116.10
2019-02-04T02:23:18.565Z,131.40
2019-02-04T02:24:18.564Z,151.40
2019-02-04T02:25:18.546Z,146.00
2019-02-04T02:26:18.531Z,152.30
2019-02-04T02:27:18.547Z,137.30
2019-02-04T02:28:18.512Z,149.90
2019-02-04T02:29:18.508Z,140.30
2019-02-04T02:30:18.502Z,132.30
2019-02-04T02:31:18.479Z,123.30
2019-02-04T02:32:18.509Z,136.00
2019-02-04T02:33:29.132Z,133.60
2019-02-04T02:34:18.448Z,128.30
2019-02-04T02:35:18.437Z,135.30
2019-02-04T02:36:18.428Z,120.90
2019-02-04T02:37:18.444Z,117.40
2019-02-04T02:38:18.409Z,123.20
2019-02-04T02:39:18.397Z,131.40
2019-02-04T02:40:18.383Z,148.60
2019-02-04T02:41:18.375Z,147.90
2019-02-04T02:42:18.394Z,135.10
2019-02-04T02:43:18.354Z,131.80
2019-02-04T02:44:18.349Z,130.50
2019-02-04T02:45:18.336Z,129.20
2019-02-04T02:46:18.321Z,141.10
2019-02-04T02:47:18.339Z,138.70
2019-02-04T02:48:18.306Z,129.50
2019-02-04T02:49:18.296Z,118.60
2019-02-04T02:50:18.281Z,128.10
2019-02-04T02:51:18.267Z,140.20
2019-02-04T02:52:18.286Z,147.40
2019-02-04T02:53:18.247Z,143.20
2019-02-04T02:54:18.241Z,142.90
2019-02-04T02:55:18.228Z,139.10
2019-02-04T02:56:18.219Z,140.90
2019-02-04T02:57:18.230Z,140.00
2019-02-04T02:58:18.196Z,147.10
2019-02-04T02:59:18.183Z,141.10
2019-02-04T03:00:18.175Z,133.10
2019-02-04T03:01:18.164Z,142.10
2019-02-04T03:02:18.179Z,150.40
2019-02-04T03:03:18.154Z,133.90
2019-02-04T03:04:18.134Z,138.10
2019-02-04T03:05:18.123Z,144.80
2019-02-04T03:06:18.114Z,142.60
2019-02-04T03:07:18.124Z,150.40
2019-02-04T03:08:18.095Z,166.40
2019-02-04T03:09:18.082Z,175.70
2019-02-04T03:10:18.070Z,182.10
2019-02-04T03:11:18.058Z,180.30
2019-02-04T03:12:18.071Z,186.90
2019-02-04T03:13:18.040Z,185.00
2019-02-04T03:14:18.034Z,194.30
2019-02-04T03:15:18.020Z,197.40
2019-02-04T03:16:18.155Z,214.50
2019-02-04T03:17:18.029Z,214.90
2019-02-04T03:18:17.983Z,215.50
2019-02-04T03:19:18.016Z,221.40
2019-02-04T03:20:17.965Z,235.60
2019-02-04T03:21:17.951Z,219.40
2019-02-04T03:22:17.989Z,241.20
2019-02-04T03:23:17.940Z,233.40
2019-02-04T03:24:17.922Z,231.60
2019-02-04T03:25:17.913Z,225.80
2019-02-04T03:26:17.901Z,220.80
2019-02-04T03:27:17.889Z,220.70
2019-02-04T03:28:17.910Z,247.60
2019-02-04T03:29:17.870Z,242.10
2019-02-04T03:30:17.875Z,227.60
2019-02-04T03:31:17.849Z,224.50
2019-02-04T03:32:17.840Z,241.70
2019-02-04T03:33:17.856Z,231.30
2019-02-04T03:34:17.818Z,232.70
2019-02-04T03:35:17.803Z,220.20
2019-02-04T03:36:17.805Z,210.80
2019-02-04T03:37:17.788Z,213.20
2019-02-04T03:38:17.801Z,191.80
2019-02-04T03:39:17.764Z,198.80
2019-02-04T03:40:17.756Z,198.00
2019-02-04T03:41:17.741Z,176.30
2019-02-04T03:42:17.730Z,169.30
2019-02-04T03:43:17.745Z,173.50
2019-02-04T03:44:17.707Z,177.40
2019-02-04T03:45:17.699Z,175.80
2019-02-04T03:46:17.687Z,175.10
2019-02-04T03:47:17.678Z,169.60
2019-02-04T03:48:17.692Z,173.60
2019-02-04T03:49:17.659Z,159.80
2019-02-04T03:50:17.652Z,175.10
2019-02-04T03:51:17.637Z,171.50
2019-02-04T03:52:17.624Z,164.90
2019-02-04T03:53:17.635Z,171.50
2019-02-04T03:54:17.604Z,167.40
2019-02-04T03:55:17.592Z,158.50
2019-02-04T03:56:17.660Z,162.10
2019-02-04T03:57:17.572Z,168.90
2019-02-04T03:58:17.594Z,178.20
2019-02-04T03:59:17.551Z,164.40
2019-02-04T04:00:17.541Z,166.80
2019-02-04T04:01:17.527Z,162.10
2019-02-04T04:02:17.520Z,172.00
2019-02-04T04:03:17.537Z,165.90
2019-02-04T04:04:17.502Z,168.90
2019-02-04T04:05:17.483Z,169.40
2019-02-04T04:06:17.478Z,169.60
2019-02-04T04:07:17.470Z,174.50
2019-02-04T04:08:17.483Z,171.10
2019-02-04T04:09:17.443Z,173.80
2019-02-04T04:10:17.433Z,170.60
2019-02-04T04:11:17.428Z,168.00
2019-02-04T04:12:17.414Z,168.00
2019-02-04T04:13:17.428Z,174.00
2019-02-04T04:14:17.391Z,167.80
2019-02-04T04:15:17.385Z,164.10
2019-02-04T04:16:17.366Z,163.20
2019-02-04T04:17:17.359Z,167.60
2019-02-04T04:18:17.375Z,167.00
2019-02-04T04:19:17.340Z,168.20
2019-02-04T04:20:17.327Z,171.70
2019-02-04T04:21:17.315Z,170.60
2019-02-04T04:22:17.308Z,166.00
2019-02-04T04:23:17.322Z,158.50
2019-02-04T04:24:17.287Z,166.40
2019-02-04T04:25:17.267Z,161.10
2019-02-04T04:26:17.268Z,163.00
2019-02-04T04:27:17.259Z,158.00
2019-02-04T04:28:17.283Z,164.60
2019-02-04T04:29:17.233Z,159.50
2019-02-04T04:30:17.228Z,159.50
2019-02-04T04:31:17.213Z,161.50
2019-02-04T04:32:17.202Z,159.10
2019-02-04T04:33:17.193Z,166.30
2019-02-04T04:34:17.209Z,158.60
2019-02-04T04:35:17.168Z,156.80
2019-02-04T04:36:17.161Z,155.10
2019-02-04T04:37:17.153Z,157.00
2019-02-04T04:38:17.139Z,154.50
2019-02-04T04:39:17.151Z,151.90
2019-02-04T04:40:17.120Z,155.90
2019-02-04T04:41:17.109Z,155.10
2019-02-04T04:42:17.096Z,164.80
2019-02-04T04:43:17.083Z,155.30
2019-02-04T04:44:17.099Z,153.70
2019-02-04T04:45:17.081Z,153.70
2019-02-04T04:46:17.097Z,162.70
2019-02-04T04:47:17.046Z,156.00
2019-02-04T04:48:26.344Z,148.60
2019-02-04T04:49:18.044Z,150.10
2019-02-04T04:51:08.062Z,138.00
2019-02-04T04:52:08.046Z,149.20
2019-02-04T04:53:08.027Z,148.40
2019-02-04T04:54:08.047Z,135.10
2019-02-04T04:55:08.009Z,145.60
2019-02-04T04:56:07.994Z,142.30
2019-02-04T04:57:08.091Z,140.50
2019-02-04T04:58:08.019Z,147.20
2019-02-04T04:59:07.998Z,138.70
2019-02-04T05:00:07.954Z,136.40
2019-02-04T05:01:07.947Z,134.40
2019-02-04T05:02:07.931Z,131.60
2019-02-04T05:03:07.926Z,133.90
2019-02-04T05:04:07.938Z,133.20
2019-02-04T05:05:07.899Z,139.50
2019-02-04T05:06:07.895Z,140.10
2019-02-04T05:07:07.887Z,131.50
2019-02-04T05:08:07.868Z,131.20
2019-02-04T05:09:07.887Z,133.80
2019-02-04T05:10:07.848Z,140.30
2019-02-04T05:11:07.835Z,133.30
2019-02-04T05:12:07.829Z,124.40
2019-02-04T05:13:07.820Z,127.40
2019-02-04T05:14:07.850Z,131.90
2019-02-04T05:15:07.797Z,133.00
2019-02-04T05:16:07.790Z,136.00
2019-02-04T05:17:07.770Z,123.20
2019-02-04T05:18:07.767Z,129.10
2019-02-04T05:19:07.785Z,137.20
2019-02-04T05:20:07.740Z,138.80
2019-02-04T05:21:07.732Z,135.70
2019-02-04T05:22:07.719Z,133.00
2019-02-04T05:23:07.712Z,129.50
2019-02-04T05:24:07.719Z,136.80
2019-02-04T05:25:07.687Z,140.40
2019-02-04T05:26:07.678Z,133.30
2019-02-04T05:27:07.666Z,135.60
2019-02-04T05:28:07.654Z,134.40
2019-02-04T05:29:07.670Z,136.70
2019-02-04T05:30:07.635Z,130.80
2019-02-04T05:31:07.823Z,138.80
2019-02-04T05:32:07.611Z,139.70
2019-02-04T05:33:07.604Z,136.70
2019-02-04T05:34:07.631Z,135.80
2019-02-04T05:35:07.581Z,141.40
2019-02-04T05:36:07.576Z,142.00
2019-02-04T05:37:07.558Z,139.10
2019-02-04T05:38:07.546Z,145.10
2019-02-04T05:39:07.539Z,130.10
2019-02-04T05:40:07.553Z,140.10
2019-02-04T05:41:07.519Z,142.30
2019-02-04T05:42:07.511Z,137.40
2019-02-04T05:43:07.496Z,139.80
2019-02-04T05:44:07.483Z,133.30
2019-02-04T05:45:07.495Z,137.00
2019-02-04T05:46:07.464Z,133.90
2019-02-04T05:47:07.450Z,134.80
2019-02-04T05:48:07.446Z,139.50
2019-02-04T05:49:07.431Z,138.80
2019-02-04T05:50:07.446Z,132.20
2019-02-04T05:51:07.414Z,136.40
2019-02-04T05:52:07.398Z,134.20
2019-02-04T05:53:07.397Z,132.00
2019-02-04T05:54:07.388Z,131.30
2019-02-04T05:55:07.399Z,129.60
2019-02-04T05:56:07.354Z,139.60
2019-02-04T05:57:07.347Z,137.50
2019-02-04T05:58:07.337Z,136.40
2019-02-04T05:59:07.327Z,137.40
2019-02-04T06:00:07.343Z,126.70
2019-02-04T06:01:07.306Z,124.90
2019-02-04T06:02:09.439Z,127.50
2019-02-04T06:03:07.284Z,134.60
2019-02-04T06:04:07.274Z,127.70
2019-02-04T06:05:07.286Z,121.30
2019-02-04T06:06:07.250Z,125.40
2019-02-04T06:07:07.242Z,116.40
2019-02-04T06:08:07.230Z,125.00
2019-02-04T06:09:07.229Z,120.70
2019-02-04T06:10:07.235Z,121.00
2019-02-04T06:11:07.231Z,127.80
2019-02-04T06:12:07.216Z,127.10
2019-02-04T06:13:07.262Z,126.90
2019-02-04T06:14:07.234Z,119.10
2019-02-04T06:15:07.194Z,129.40
2019-02-04T06:16:07.189Z,132.70
2019-02-04T06:17:07.146Z,125.90
2019-02-04T06:18:07.129Z,119.70
2019-02-04T06:19:07.124Z,131.30
2019-02-04T06:20:07.232Z,123.20
2019-02-04T06:21:07.171Z,133.80
2019-02-04T06:22:07.163Z,134.30
2019-02-04T06:23:07.086Z,130.50
2019-02-04T06:24:07.063Z,140.20
2019-02-04T06:25:07.079Z,133.60
2019-02-04T06:26:07.046Z,139.80
2019-02-04T06:27:07.031Z,138.60
2019-02-04T06:28:07.037Z,133.50
2019-02-04T06:29:07.015Z,138.50
2019-02-04T06:30:07.036Z,143.90
2019-02-04T06:31:06.994Z,137.20
2019-02-04T06:32:07.013Z,146.20
2019-02-04T06:33:06.990Z,139.20
2019-02-04T06:34:06.980Z,137.40
2019-02-04T06:35:07.086Z,134.50
2019-02-04T06:36:06.942Z,134.90
2019-02-04T06:37:06.931Z,132.90
2019-02-04T06:38:06.919Z,133.80
2019-02-04T06:39:06.908Z,136.10
2019-02-04T06:40:06.900Z,131.70
2019-02-04T06:41:06.920Z,134.20
2019-02-04T06:42:06.874Z,134.90
2019-02-04T06:43:06.867Z,147.50
2019-02-04T06:44:06.854Z,136.40
2019-02-04T06:45:06.843Z,140.60
2019-02-04T06:46:06.867Z,135.10
2019-02-04T06:47:06.957Z,127.40
2019-02-04T06:48:06.811Z,134.20
2019-02-04T06:49:12.526Z,123.70
2019-02-04T06:50:07.791Z,133.50
2019-02-04T06:51:06.807Z,126.70
2019-02-04T06:52:06.775Z,132.50
2019-02-04T06:53:06.760Z,128.40
2019-02-04T06:54:06.815Z,126.10
2019-02-04T06:55:06.751Z,124.00
2019-02-04T06:56:06.755Z,110.10
2019-02-04T06:57:06.721Z,113.60
2019-02-04T06:58:06.708Z,130.70
2019-02-04T06:59:06.700Z,118.80
2019-02-04T07:00:06.687Z,118.50
2019-02-04T07:01:06.702Z,120.60
2019-02-04T07:02:06.667Z,117.00
2019-02-04T07:03:06.662Z,120.90
2019-02-04T07:04:06.644Z,123.50
2019-02-04T07:05:06.634Z,123.00
2019-02-04T07:06:06.647Z,118.50
2019-02-04T07:07:06.616Z,123.00
2019-02-04T07:08:06.621Z,120.30
2019-02-04T07:09:06.595Z,118.10
2019-02-04T07:10:06.593Z,117.40
2019-02-04T07:11:06.603Z,120.60
2019-02-04T07:12:06.559Z,113.40
2019-02-04T07:13:06.546Z,119.20
2019-02-04T07:14:06.539Z,112.80
2019-02-04T07:15:06.532Z,115.80
2019-02-04T07:16:06.539Z,108.50
2019-02-04T07:17:06.506Z,109.50
2019-02-04T07:18:06.497Z,107.90
2019-02-04T07:19:06.524Z,108.80
2019-02-04T07:20:06.478Z,109.80
2019-02-04T07:21:06.488Z,101.30
2019-02-04T07:22:06.453Z,106.30
2019-02-04T07:23:06.442Z,104.10
2019-02-04T07:24:06.432Z,98.00
2019-02-04T07:25:06.418Z,99.70
2019-02-04T07:26:06.435Z,97.40
2019-02-04T07:27:06.410Z,100.20
2019-02-04T07:28:06.388Z,97.10
2019-02-04T07:29:06.380Z,97.30
2019-02-04T07:30:06.367Z,95.20
2019-02-04T07:31:06.384Z,93.60
2019-02-04T07:32:06.351Z,91.90
2019-02-04T07:33:06.336Z,94.50
2019-02-04T07:34:06.324Z,90.80
2019-02-04T07:35:06.316Z,85.20
2019-02-04T07:36:06.336Z,96.60
2019-02-04T07:37:06.294Z,82.40
2019-02-04T07:38:06.287Z,85.30
2019-02-04T07:39:06.274Z,87.60
2019-02-04T07:40:06.266Z,83.10
2019-02-04T07:41:06.285Z,83.00
2019-02-04T07:42:06.246Z,79.60
2019-02-04T07:43:06.238Z,78.20
2019-02-04T07:44:06.231Z,79.50
2019-02-04T07:45:06.211Z,82.70
2019-02-04T07:46:06.230Z,80.60
2019-02-04T07:47:06.191Z,78.10
2019-02-04T07:48:06.179Z,80.10
2019-02-04T07:49:06.171Z,75.40
2019-02-04T07:50:06.160Z,78.60
2019-02-04T07:51:06.195Z,76.60
2019-02-04T07:52:06.139Z,78.70
2019-02-04T07:53:06.117Z,81.00
2019-02-04T07:54:06.120Z,80.30
2019-02-04T07:55:06.107Z,77.90
2019-02-04T07:56:06.095Z,78.30
2019-02-04T07:57:06.117Z,80.20
2019-02-04T07:58:06.075Z,74.40
2019-02-04T07:59:06.062Z,73.10
2019-02-04T08:00:06.060Z,71.20
2019-02-04T08:01:06.042Z,69.00
2019-02-04T08:02:06.062Z,66.20
2019-02-04T08:03:06.027Z,69.20
2019-02-04T08:04:06.017Z,67.00
2019-02-04T08:05:06.011Z,63.40
2019-02-04T08:06:06.003Z,61.10
2019-02-04T08:07:06.006Z,65.10
2019-02-04T08:08:05.974Z,63.60
2019-02-04T08:09:05.965Z,56.80
2019-02-04T08:10:05.950Z,63.00
2019-02-04T08:11:05.943Z,59.60
2019-02-04T08:12:05.955Z,58.30
2019-02-04T08:13:05.925Z,61.20
2019-02-04T08:14:05.915Z,60.00
2019-02-04T08:15:05.907Z,57.70
2019-02-04T08:16:05.899Z,58.60
2019-02-04T08:17:05.903Z,59.00
2019-02-04T08:18:05.868Z,57.30
2019-02-04T08:19:05.856Z,58.70
2019-02-04T08:20:05.845Z,59.60
2019-02-04T08:21:05.838Z,57.00
2019-02-04T08:22:05.855Z,57.10
2019-02-04T08:23:05.816Z,55.80
2019-02-04T08:24:05.806Z,55.30
2019-02-04T08:25:05.804Z,54.80
2019-02-04T08:26:05.785Z,53.80
2019-02-04T08:27:05.801Z,54.90
2019-02-04T08:28:05.762Z,55.00
2019-02-04T08:29:05.751Z,49.70
2019-02-04T08:30:05.750Z,47.30
2019-02-04T08:31:05.747Z,47.90
2019-02-04T08:32:05.751Z,44.30
2019-02-04T08:33:05.711Z,47.00
2019-02-04T08:34:05.700Z,45.10
2019-02-04T08:35:05.687Z,46.30
2019-02-04T08:36:05.679Z,45.00
2019-02-04T08:37:05.702Z,42.40
2019-02-04T08:38:05.663Z,43.70
2019-02-04T08:39:05.648Z,44.50
2019-02-04T08:40:05.635Z,43.90
2019-02-04T08:41:05.694Z,44.50
2019-02-04T08:42:05.665Z,43.40
2019-02-04T08:43:05.629Z,42.40
2019-02-04T08:44:05.592Z,42.80
2019-02-04T08:45:05.583Z,41.70
2019-02-04T08:46:05.571Z,43.30
2019-02-04T08:47:05.565Z,45.10
2019-02-04T08:48:05.578Z,41.90
2019-02-04T08:49:05.547Z,38.80
2019-02-04T08:50:05.531Z,40.20
2019-02-04T08:51:05.519Z,39.30
2019-02-04T08:52:05.508Z,42.50
2019-02-04T08:53:05.525Z,40.00
2019-02-04T08:54:05.488Z,39.20
2019-02-04T08:55:05.475Z,35.80
2019-02-04T08:56:05.469Z,36.10
2019-02-04T08:57:05.456Z,32.70
2019-02-04T08:58:05.476Z,32.90
2019-02-04T08:59:05.440Z,38.10
2019-02-04T09:00:05.424Z,36.30
2019-02-04T09:01:05.412Z,33.10
2019-02-04T09:02:05.403Z,32.60
2019-02-04T09:03:05.417Z,33.50
2019-02-04T09:04:05.379Z,31.80
2019-02-04T09:05:05.372Z,35.10
2019-02-04T09:06:05.361Z,31.50
2019-02-04T09:07:05.346Z,30.50
2019-02-04T09:08:05.364Z,32.60
2019-02-04T09:09:05.328Z,31.20
2019-02-04T09:10:05.318Z,31.20
2019-02-04T09:11:05.309Z,31.80
2019-02-04T09:12:05.296Z,31.60
2019-02-04T09:13:05.310Z,30.00
2019-02-04T09:14:05.281Z,28.90
2019-02-04T09:15:05.264Z,28.70
2019-02-04T09:16:05.255Z,28.30
2019-02-04T09:17:05.255Z,29.10
2019-02-04T09:18:05.281Z,32.00
2019-02-04T09:19:05.220Z,27.10
2019-02-04T09:20:10.186Z,27.40
2019-02-04T09:21:06.201Z,25.90
2019-02-04T09:22:05.198Z,27.10
2019-02-04T09:23:06.189Z,31.20
2019-02-04T09:24:05.192Z,28.20
2019-02-04T09:25:05.158Z,26.00
2019-02-04T09:26:05.157Z,26.70
2019-02-04T09:27:05.135Z,26.60
2019-02-04T09:28:05.127Z,23.70
2019-02-04T09:29:05.142Z,23.10
2019-02-04T09:30:05.102Z,25.80
2019-02-04T09:31:05.092Z,25.20
2019-02-04T09:32:05.085Z,25.00
2019-02-04T09:33:05.071Z,25.50
2019-02-04T09:34:05.083Z,26.60
2019-02-04T09:35:05.047Z,24.60
2019-02-04T09:36:05.043Z,24.00
2019-02-04T09:37:05.036Z,21.80
2019-02-04T09:38:05.027Z,24.50
2019-02-04T09:39:05.031Z,22.20
2019-02-04T09:40:04.999Z,20.90
2019-02-04T09:41:04.988Z,23.10
2019-02-04T09:42:04.977Z,24.30
2019-02-04T09:43:04.966Z,24.60
2019-02-04T09:44:04.986Z,19.60
2019-02-04T09:45:04.945Z,21.60
2019-02-04T09:46:04.943Z,20.30
2019-02-04T09:47:04.918Z,20.80
2019-02-04T09:48:04.913Z,24.90
2019-02-04T09:49:04.945Z,19.40
2019-02-04T09:50:04.886Z,20.30
2019-02-04T09:51:04.878Z,20.90
2019-02-04T09:52:04.869Z,23.20
2019-02-04T09:53:04.859Z,21.90
2019-02-04T09:54:04.853Z,19.40
2019-02-04T09:55:04.863Z,20.50
2019-02-04T09:56:04.828Z,22.60
2019-02-04T09:57:04.814Z,19.20
2019-02-04T09:58:04.805Z,20.90
2019-02-04T09:59:04.795Z,19.10
2019-02-04T10:00:04.820Z,19.40
2019-02-04T10:01:04.774Z,20.70
2019-02-04T10:02:04.763Z,20.50
2019-02-04T10:03:04.753Z,20.00
2019-02-04T10:04:04.741Z,17.90
2019-02-04T10:05:04.757Z,18.30
2019-02-04T10:06:04.719Z,18.10
2019-02-04T10:07:04.706Z,18.10
2019-02-04T10:08:04.700Z,17.40
2019-02-04T10:09:04.688Z,19.50
2019-02-04T10:10:04.700Z,16.90
2019-02-04T10:11:04.668Z,19.00
2019-02-04T10:12:04.660Z,19.30
2019-02-04T10:13:04.645Z,19.20
2019-02-04T10:14:04.636Z,19.40
2019-02-04T10:15:04.671Z,17.50
2019-02-04T10:16:04.648Z,17.00
2019-02-04T10:17:04.606Z,17.40
2019-02-04T10:18:04.620Z,17.30
2019-02-04T10:19:04.585Z,17.10
2019-02-04T10:20:04.600Z,20.30
2019-02-04T10:21:04.570Z,18.70
2019-02-04T10:22:04.658Z,17.50
2019-02-04T10:23:04.594Z,16.40
2019-02-04T10:24:04.660Z,16.40
2019-02-04T10:25:04.535Z,15.10
2019-02-04T10:26:04.543Z,18.50
2019-02-04T10:27:04.507Z,16.60
2019-02-04T10:28:04.521Z,19.30
2019-02-04T10:29:04.482Z,18.40
2019-02-04T10:30:04.528Z,16.90
2019-02-04T10:31:04.456Z,15.40
2019-02-04T10:32:04.461Z,15.20
2019-02-04T10:33:04.436Z,15.30
2019-02-04T10:34:04.442Z,16.30
2019-02-04T10:35:04.479Z,15.70
2019-02-04T10:36:04.416Z,15.60
2019-02-04T10:37:04.428Z,16.60
2019-02-04T10:38:04.398Z,17.90
2019-02-04T10:39:04.440Z,15.80
2019-02-04T10:40:04.431Z,15.20
2019-02-04T10:41:04.347Z,15.40
2019-02-04T10:42:04.361Z,16.10
2019-02-04T10:43:04.354Z,15.10
2019-02-04T10:44:04.336Z,17.20
2019-02-04T10:45:04.334Z,16.80
2019-02-04T10:46:04.947Z,15.00
2019-02-04T10:47:04.284Z,17.10
2019-02-04T10:48:04.278Z,16.60
2019-02-04T10:49:04.264Z,15.30
2019-02-04T10:50:04.310Z,17.70
2019-02-04T10:51:04.299Z,15.90
2019-02-04T10:52:04.279Z,14.90
2019-02-04T10:53:04.247Z,14.80
2019-02-04T10:54:04.206Z,16.70
2019-02-04T10:55:04.199Z,14.80
2019-02-04T10:56:04.352Z,14.20
2019-02-04T10:57:04.179Z,18.20
2019-02-04T10:58:04.205Z,16.30
2019-02-04T10:59:04.166Z,17.30
2019-02-04T11:00:04.186Z,16.00
2019-02-04T11:01:04.164Z,15.80
2019-02-04T11:02:04.131Z,14.40
2019-02-04T11:03:04.143Z,14.60
2019-02-04T11:04:04.107Z,15.80
2019-02-04T11:05:04.096Z,16.10
2019-02-04T11:06:04.112Z,14.50
2019-02-04T11:07:04.101Z,17.50
2019-02-04T11:08:04.066Z,16.50
2019-02-04T11:09:04.094Z,14.90
2019-02-04T11:10:04.083Z,14.10
2019-02-04T11:11:04.094Z,16.20
2019-02-04T11:12:04.022Z,13.90
2019-02-04T11:13:04.055Z,14.10
2019-02-04T11:14:04.043Z,16.10
2019-02-04T11:15:03.990Z,13.60
2019-02-04T11:16:04.026Z,14.80
2019-02-04T11:17:03.970Z,14.90
2019-02-04T11:18:03.991Z,15.80
2019-02-04T11:19:03.981Z,16.00
2019-02-04T11:20:03.936Z,14.30
2019-02-04T11:21:03.965Z,12.70
2019-02-04T11:22:03.949Z,14.90
2019-02-04T11:23:03.949Z,16.20
2019-02-04T11:24:03.951Z,14.70
2019-02-04T11:25:03.885Z,16.70
2019-02-04T11:26:03.952Z,12.40
2019-02-04T11:27:03.917Z,14.20
2019-02-04T11:28:03.851Z,14.00
2019-02-04T11:29:03.870Z,13.90
2019-02-04T11:30:03.834Z,13.20
2019-02-04T11:31:03.923Z,14.30
2019-02-04T11:32:03.811Z,15.30
2019-02-04T11:33:03.834Z,14.00
2019-02-04T11:34:03.838Z,12.30
2019-02-04T11:35:03.810Z,14.00
2019-02-04T11:36:03.771Z,13.80
2019-02-04T11:37:03.836Z,13.50
2019-02-04T11:38:03.917Z,13.60
2019-02-04T11:39:03.742Z,13.60
2019-02-04T11:40:03.731Z,12.60
2019-02-04T11:41:03.717Z,15.50
2019-02-04T11:42:03.731Z,13.00
2019-02-04T11:43:03.720Z,14.70
2019-02-04T11:44:03.680Z,15.20
2019-02-04T11:45:03.766Z,13.10
2019-02-04T11:46:03.662Z,12.90
2019-02-04T11:47:03.679Z,14.40
2019-02-04T11:48:03.648Z,12.70
2019-02-04T11:49:03.627Z,14.60
2019-02-04T11:50:03.621Z,14.40
2019-02-04T11:51:09.682Z,15.20
2019-02-04T11:52:04.626Z,14.90
2019-02-04T11:53:03.597Z,14.60
2019-02-04T11:54:03.576Z,13.30
2019-02-04T11:55:03.564Z,14.20
2019-02-04T11:56:03.552Z,14.90
2019-02-04T11:57:03.567Z,14.80
2019-02-04T11:58:03.541Z,13.30
2019-02-04T11:59:03.527Z,14.00
2019-02-04T12:00:03.518Z,12.60
2019-02-04T12:01:03.502Z,12.40
2019-02-04T12:02:03.515Z,13.00
2019-02-04T12:03:03.481Z,14.80
2019-02-04T12:04:03.474Z,15.00
2019-02-04T12:05:03.460Z,13.60
2019-02-04T12:06:03.447Z,12.90
2019-02-04T12:07:03.465Z,12.40
2019-02-04T12:08:03.427Z,13.60
2019-02-04T12:09:03.429Z,13.20
2019-02-04T12:10:03.407Z,14.40
2019-02-04T12:11:03.397Z,12.70
2019-02-04T12:12:03.412Z,13.70
2019-02-04T12:13:03.384Z,15.20
2019-02-04T12:14:03.369Z,12.30
2019-02-04T12:15:03.353Z,13.90
2019-02-04T12:16:03.345Z,12.50
2019-02-04T12:17:03.357Z,14.10
2019-02-04T12:18:03.332Z,13.60
2019-02-04T12:19:03.308Z,11.50
2019-02-04T12:20:03.299Z,13.50
2019-02-04T12:21:03.291Z,14.90
2019-02-04T12:22:03.312Z,13.20
2019-02-04T12:23:03.268Z,13.50
2019-02-04T12:24:03.260Z,12.60
2019-02-04T12:25:03.247Z,12.60
2019-02-04T12:26:03.238Z,12.80
2019-02-04T12:27:03.273Z,11.00
2019-02-04T12:28:03.211Z,11.80
2019-02-04T12:29:03.206Z,11.20
2019-02-04T12:30:03.193Z,11.40
2019-02-04T12:31:03.186Z,12.50
2019-02-04T12:32:03.167Z,11.30
2019-02-04T12:33:03.185Z,11.40
2019-02-04T12:34:03.148Z,12.60
2019-02-04T12:35:03.139Z,12.60
2019-02-04T12:36:03.131Z,10.90
2019-02-04T12:37:03.115Z,12.60
2019-02-04T12:38:03.131Z,12.80
2019-02-04T12:39:03.098Z,13.80
2019-02-04T12:40:03.084Z,11.30
2019-02-04T12:41:03.072Z,12.20